Boston, MA

6:11 AM EST on February 09, 2016 (GMT -0500)
Sumner Place | | Change Station
CLOSE
Current Station
Personal Weather Station
Location: Boston, MA
Elevation: 56 ft
Nearby Weather Stations

Elev 56 ft 42.37 °N, 71.03 °W | Updated 11 minutes ago

Overcast
Overcast
20.1 °F
Feels Like 20 °F
N
1.7
Wind Variable Wind from ESE

Today
High -- | Low -- °F
--% Chance of Precip.
Yesterday
High -- | Low -- °F
Precip. -- in
Pressure 29.73 in
Visibility 10.0 miles
Clouds Few 1500 ft
Mostly Cloudy 2100 ft
Overcast 2700 ft
Windchill 20 °F
Dew Point 16 °F
Humidity 85%
Rainfall 0.00 in
Snow Depth Not available.
6:49 AM 5:08 PM
New Moon, 1% visible
METAR KBOS 091054Z 33008KT 10SM FEW015 BKN021 OVC027 M07/M09 A2973 RMK AO2 SLP068 T10671094 $
Pressure 29.73 in
Visibility 10.0 miles
Clouds Few 1500 ft
Mostly Cloudy 2100 ft
Overcast 2700 ft
Windchill 20 °F
Dew Point 16 °F
Humidity 85%
Rainfall 0.00 in
Snow Depth Not available.
6:49 AM 5:08 PM
New Moon, 1% visible
METAR KBOS 091054Z 33008KT 10SM FEW015 BKN021 OVC027 M07/M09 A2973 RMK AO2 SLP068 T10671094 $

10-Day Weather Forecast

Almanac

Astronomy

Feb. 09, 2016 Rise Set
Actual Time
Civil Twilight
Nautical Twilight
Astronomical Twilight
Moon
Length of Visible Light
Length of Day
Tomorrow will be .
, % of the Moon is Illuminated

Today's Extremes

State Highs State Lows

Community

WunderPhotos

Upload Photos

1,891,565 photos uploaded!

WunderBlog® & News

Nearby

Air Quality

  Air Quality AQ Index Pollutant
Not available.

Snow Depth

Station Depth Elevation

Earthquake Activity

City Distance Mag. Time & Date
Minimum magnitude displayed is 2.5.

Coastal Water Temperatures

Place Temperature

Stations

Nearby Weather Stations

Station Location Temp. Windchill Dew Point Humidity Wind Precip. Elev Updated Type
                   

Watches & Warnings

Special Statement
Issued: 4:04 AM EST Feb. 9, 2016 – National Weather Service

... Untreated roads will remain slippery for the morning rush
hour...

Scattered light snow showers and flurries will gradually come to
an end by mid morning... but some locations may receive a fresh
coating to one half inch of new snow. Otherwise... the main
concern is that with temperatures well below freezing untreated
roads will remain snow covered and slippery for the morning rush
hour. Motorists are urged to drive with extra caution.


Frank


404 am EST Tue Feb 9 2016

... Untreated roads will remain slippery for the morning rush
hour...

Scattered light snow showers and flurries will gradually come to
an end by mid morning... but some locations may receive a fresh
coating to one half inch of new snow. Otherwise... the main
concern is that with temperatures well below freezing untreated
roads will remain snow covered and slippery for the morning rush
hour. Motorists are urged to drive with extra caution.


Frank